Genola, UT

11:44 AM MDT on August 03, 2015 (GMT -0600)
MesoWest | | Change Station
CLOSE
Current Station
Personal Weather Station
Location: Santaquin, UT
Elevation: 4683 ft
Nearby Weather Stations

Elev 4683 ft 40.03 °N, 111.79 °W | Updated 54 minutes ago

Light Rain
Light Rain
62.0 °F
Feels Like 62.0 °F
N
3.0
Wind Variable Wind from SSW
Gusts 5.0 mph

Today
High -- | Low -- °F
--% Chance of Precip.
Yesterday
High -- | Low -- °F
Precip. -- in
6:27 AM 8:38 PM
Waning Gibbous, 85% visible
Pressure 30.14 in
Visibility 10.0 miles
Clouds Mostly Cloudy 2600 ft
Overcast 3800 ft
Dew Point 59.0 °F
Humidity 90%
Rainfall in
Snow Depth Not available.
UV 2 out of 12
Pollen 1.90 out of 12
Air Quality Not available.
Flu Activity Not available.
METAR KPVU 031657Z VRB04KT 10SM -RA BKN026 OVC038 17/14 A3014

More Conditions Fewer Conditions

Pressure 30.14 in
Visibility 10.0 miles
Clouds Mostly Cloudy 2600 ft
Overcast 3800 ft
Dew Point 59.0 °F
Humidity 90%
Rainfall in
Snow Depth Not available.
UV 2 out of 12
Pollen 1.90 out of 12
Air Quality Not available.
Flu Activity Not available.
METAR KPVU 031657Z VRB04KT 10SM -RA BKN026 OVC038 17/14 A3014

More Conditions Fewer Conditions

10-Day Weather Forecast

×

Almanac

Astronomy

Aug. 03, 2015 Rise Set
Actual Time
Civil Twilight
Nautical Twilight
Astronomical Twilight
Moon
Length of Visible Light
Length of Day
Tomorrow will be .
, % of the Moon is Illuminated

Today's Extremes

State Highs State Lows

Community

WunderPhotos

Upload Photos

1,843,694 photos uploaded!

WunderBlogs® & News

Nearby

Air Quality

  Air Quality AQ Index Pollutant
Not available.

Snow Depth

Station Depth Elevation

Earthquake Activity

City Distance Mag. Time & Date
Minimum magnitude displayed is 2.5.

Coastal Water Temperatures

Place Temperature

Stations

Nearby Weather Stations

Station Location Temp. Windchill Dew Point Humidity Wind Precip. Elev Updated Type